sensor_id;sensor_type;location;lat;lon;timestamp;P1;durP1;ratioP1;P2;durP2;ratioP2
64351;SDS011;50680;52.626;-8.668;2023-09-07T00:01:36;3.10;;;1.60;;
64351;SDS011;50680;52.626;-8.668;2023-09-07T00:04:03;9.95;;;2.08;;
64351;SDS011;50680;52.626;-8.668;2023-09-07T00:06:31;7.05;;;2.00;;
64351;SDS011;50680;52.626;-8.668;2023-09-07T00:08:58;6.78;;;2.10;;
64351;SDS011;50680;52.626;-8.668;2023-09-07T00:11:25;5.57;;;1.90;;
64351;SDS011;50680;52.626;-8.668;2023-09-07T00:13:52;5.32;;;1.80;;
64351;SDS011;50680;52.626;-8.668;2023-09-07T00:16:19;6.68;;;2.00;;
64351;SDS011;50680;52.626;-8.668;2023-09-07T00:18:46;5.43;;;1.98;;
64351;SDS011;50680;52.626;-8.668;2023-09-07T00:21:13;7.63;;;2.28;;
64351;SDS011;50680;52.626;-8.668;2023-09-07T00:23:39;6.63;;;2.58;;
64351;SDS011;50680;52.626;-8.668;2023-09-07T00:26:07;7.32;;;1.90;;
64351;SDS011;50680;52.626;-8.668;2023-09-07T00:28:34;5.40;;;1.73;;
64351;SDS011;50680;52.626;-8.668;2023-09-07T00:31:01;4.80;;;2.00;;
64351;SDS011;50680;52.626;-8.668;2023-09-07T00:33:28;3.50;;;1.65;;
64351;SDS011;50680;52.626;-8.668;2023-09-07T00:35:55;5.07;;;1.90;;
64351;SDS011;50680;52.626;-8.668;2023-09-07T00:38:22;7.15;;;2.00;;
64351;SDS011;50680;52.626;-8.668;2023-09-07T00:40:48;7.47;;;1.85;;
64351;SDS011;50680;52.626;-8.668;2023-09-07T00:43:15;7.32;;;2.05;;
64351;SDS011;50680;52.626;-8.668;2023-09-07T00:45:42;6.65;;;2.05;;
64351;SDS011;50680;52.626;-8.668;2023-09-07T00:48:09;8.38;;;2.00;;
64351;SDS011;50680;52.626;-8.668;2023-09-07T00:50:39;5.95;;;2.00;;
64351;SDS011;50680;52.626;-8.668;2023-09-07T00:53:06;6.45;;;2.42;;
64351;SDS011;50680;52.626;-8.668;2023-09-07T00:55:34;5.07;;;2.53;;
64351;SDS011;50680;52.626;-8.668;2023-09-07T00:58:05;5.65;;;2.40;;
64351;SDS011;50680;52.626;-8.668;2023-09-07T01:00:32;7.72;;;2.00;;
64351;SDS011;50680;52.626;-8.668;2023-09-07T01:03:00;5.28;;;1.67;;
64351;SDS011;50680;52.626;-8.668;2023-09-07T01:05:41;4.10;;;1.83;;
64351;SDS011;50680;52.626;-8.668;2023-09-07T01:08:14;5.47;;;2.00;;
64351;SDS011;50680;52.626;-8.668;2023-09-07T01:10:46;4.53;;;2.20;;
64351;SDS011;50680;52.626;-8.668;2023-09-07T01:13:13;6.47;;;2.00;;
64351;SDS011;50680;52.626;-8.668;2023-09-07T01:15:40;5.85;;;2.22;;
64351;SDS011;50680;52.626;-8.668;2023-09-07T01:18:06;4.22;;;1.88;;
64351;SDS011;50680;52.626;-8.668;2023-09-07T01:20:50;5.30;;;1.73;;
64351;SDS011;50680;52.626;-8.668;2023-09-07T01:23:19;4.57;;;1.70;;
64351;SDS011;50680;52.626;-8.668;2023-09-07T01:25:46;4.60;;;2.03;;
64351;SDS011;50680;52.626;-8.668;2023-09-07T01:28:15;5.50;;;1.92;;
64351;SDS011;50680;52.626;-8.668;2023-09-07T01:30:42;4.60;;;1.90;;
64351;SDS011;50680;52.626;-8.668;2023-09-07T01:33:08;11.30;;;1.80;;
64351;SDS011;50680;52.626;-8.668;2023-09-07T01:35:35;4.45;;;1.98;;
64351;SDS011;50680;52.626;-8.668;2023-09-07T01:38:04;7.00;;;2.92;;
64351;SDS011;50680;52.626;-8.668;2023-09-07T01:40:31;6.13;;;2.25;;
64351;SDS011;50680;52.626;-8.668;2023-09-07T01:42:58;3.97;;;2.40;;
64351;SDS011;50680;52.626;-8.668;2023-09-07T01:45:25;4.35;;;2.83;;
64351;SDS011;50680;52.626;-8.668;2023-09-07T01:47:51;5.32;;;2.45;;
64351;SDS011;50680;52.626;-8.668;2023-09-07T01:50:18;7.70;;;2.65;;
64351;SDS011;50680;52.626;-8.668;2023-09-07T01:52:48;6.63;;;3.22;;
64351;SDS011;50680;52.626;-8.668;2023-09-07T01:55:15;8.40;;;2.30;;
64351;SDS011;50680;52.626;-8.668;2023-09-07T01:57:43;8.30;;;2.60;;
64351;SDS011;50680;52.626;-8.668;2023-09-07T02:00:11;5.45;;;2.47;;
64351;SDS011;50680;52.626;-8.668;2023-09-07T02:02:39;6.95;;;2.33;;
64351;SDS011;50680;52.626;-8.668;2023-09-07T02:05:06;7.88;;;2.50;;
64351;SDS011;50680;52.626;-8.668;2023-09-07T02:07:33;10.50;;;2.80;;
64351;SDS011;50680;52.626;-8.668;2023-09-07T02:10:00;11.55;;;2.92;;
64351;SDS011;50680;52.626;-8.668;2023-09-07T02:12:29;4.43;;;2.38;;
64351;SDS011;50680;52.626;-8.668;2023-09-07T02:14:56;10.48;;;2.50;;
64351;SDS011;50680;52.626;-8.668;2023-09-07T02:17:24;8.55;;;2.78;;
64351;SDS011;50680;52.626;-8.668;2023-09-07T02:19:52;7.60;;;2.92;;
64351;SDS011;50680;52.626;-8.668;2023-09-07T02:22:19;5.60;;;2.78;;
64351;SDS011;50680;52.626;-8.668;2023-09-07T02:24:46;6.13;;;2.60;;
64351;SDS011;50680;52.626;-8.668;2023-09-07T02:27:13;6.00;;;2.47;;
64351;SDS011;50680;52.626;-8.668;2023-09-07T02:29:40;9.48;;;3.20;;
64351;SDS011;50680;52.626;-8.668;2023-09-07T02:32:07;3.50;;;2.60;;
64351;SDS011;50680;52.626;-8.668;2023-09-07T02:34:35;8.25;;;2.83;;
64351;SDS011;50680;52.626;-8.668;2023-09-07T02:37:02;7.85;;;3.20;;
64351;SDS011;50680;52.626;-8.668;2023-09-07T02:39:29;5.88;;;3.00;;
64351;SDS011;50680;52.626;-8.668;2023-09-07T02:41:56;9.93;;;3.83;;
64351;SDS011;50680;52.626;-8.668;2023-09-07T02:44:23;8.43;;;3.95;;
64351;SDS011;50680;52.626;-8.668;2023-09-07T02:46:50;6.38;;;3.22;;
64351;SDS011;50680;52.626;-8.668;2023-09-07T02:49:17;10.32;;;2.97;;
64351;SDS011;50680;52.626;-8.668;2023-09-07T02:51:44;9.43;;;2.75;;
64351;SDS011;50680;52.626;-8.668;2023-09-07T02:54:11;12.57;;;4.40;;
64351;SDS011;50680;52.626;-8.668;2023-09-07T02:56:38;9.77;;;3.20;;
64351;SDS011;50680;52.626;-8.668;2023-09-07T02:59:04;5.63;;;2.90;;
64351;SDS011;50680;52.626;-8.668;2023-09-07T03:01:31;11.90;;;3.15;;
64351;SDS011;50680;52.626;-8.668;2023-09-07T03:03:58;9.20;;;3.10;;
64351;SDS011;50680;52.626;-8.668;2023-09-07T03:06:25;10.07;;;3.17;;
64351;SDS011;50680;52.626;-8.668;2023-09-07T03:08:52;8.27;;;3.35;;
64351;SDS011;50680;52.626;-8.668;2023-09-07T03:11:19;6.05;;;2.78;;
64351;SDS011;50680;52.626;-8.668;2023-09-07T03:13:45;10.60;;;3.10;;
64351;SDS011;50680;52.626;-8.668;2023-09-07T03:16:12;4.97;;;2.47;;
64351;SDS011;50680;52.626;-8.668;2023-09-07T03:18:39;16.05;;;4.65;;
64351;SDS011;50680;52.626;-8.668;2023-09-07T03:21:07;10.93;;;2.83;;
64351;SDS011;50680;52.626;-8.668;2023-09-07T03:23:34;5.50;;;2.70;;
64351;SDS011;50680;52.626;-8.668;2023-09-07T03:26:01;12.05;;;3.30;;
64351;SDS011;50680;52.626;-8.668;2023-09-07T03:28:28;11.10;;;3.20;;
64351;SDS011;50680;52.626;-8.668;2023-09-07T03:30:56;9.13;;;2.67;;
64351;SDS011;50680;52.626;-8.668;2023-09-07T03:33:23;6.18;;;2.70;;
64351;SDS011;50680;52.626;-8.668;2023-09-07T03:35:49;11.75;;;3.30;;
64351;SDS011;50680;52.626;-8.668;2023-09-07T03:38:18;9.23;;;3.17;;
64351;SDS011;50680;52.626;-8.668;2023-09-07T03:40:45;13.13;;;3.63;;
64351;SDS011;50680;52.626;-8.668;2023-09-07T03:43:12;9.88;;;3.33;;
64351;SDS011;50680;52.626;-8.668;2023-09-07T03:45:39;10.02;;;2.78;;
64351;SDS011;50680;52.626;-8.668;2023-09-07T03:48:06;10.15;;;2.95;;
64351;SDS011;50680;52.626;-8.668;2023-09-07T03:50:33;6.80;;;3.25;;
64351;SDS011;50680;52.626;-8.668;2023-09-07T03:52:59;14.57;;;3.00;;
64351;SDS011;50680;52.626;-8.668;2023-09-07T03:55:26;8.57;;;3.45;;
64351;SDS011;50680;52.626;-8.668;2023-09-07T03:57:53;18.08;;;3.35;;
64351;SDS011;50680;52.626;-8.668;2023-09-07T04:00:20;10.35;;;2.88;;
64351;SDS011;50680;52.626;-8.668;2023-09-07T04:02:47;11.75;;;3.33;;
64351;SDS011;50680;52.626;-8.668;2023-09-07T04:05:14;8.40;;;2.80;;
64351;SDS011;50680;52.626;-8.668;2023-09-07T04:07:41;12.95;;;3.42;;
64351;SDS011;50680;52.626;-8.668;2023-09-07T04:10:08;14.50;;;3.20;;
64351;SDS011;50680;52.626;-8.668;2023-09-07T04:12:35;9.77;;;3.50;;
64351;SDS011;50680;52.626;-8.668;2023-09-07T04:15:02;9.80;;;3.45;;
64351;SDS011;50680;52.626;-8.668;2023-09-07T04:17:29;11.50;;;3.55;;
64351;SDS011;50680;52.626;-8.668;2023-09-07T04:19:56;15.68;;;3.42;;
64351;SDS011;50680;52.626;-8.668;2023-09-07T04:22:23;9.50;;;3.28;;
64351;SDS011;50680;52.626;-8.668;2023-09-07T04:24:50;12.85;;;4.20;;
64351;SDS011;50680;52.626;-8.668;2023-09-07T04:27:17;15.13;;;3.80;;
64351;SDS011;50680;52.626;-8.668;2023-09-07T04:29:43;12.27;;;3.20;;
64351;SDS011;50680;52.626;-8.668;2023-09-07T04:32:10;8.68;;;4.35;;
64351;SDS011;50680;52.626;-8.668;2023-09-07T04:34:37;14.00;;;5.00;;
64351;SDS011;50680;52.626;-8.668;2023-09-07T04:37:04;11.60;;;4.35;;
64351;SDS011;50680;52.626;-8.668;2023-09-07T04:39:31;9.02;;;4.05;;
64351;SDS011;50680;52.626;-8.668;2023-09-07T04:41:58;9.80;;;3.33;;
64351;SDS011;50680;52.626;-8.668;2023-09-07T04:44:26;9.40;;;3.30;;
64351;SDS011;50680;52.626;-8.668;2023-09-07T04:46:55;10.85;;;3.90;;
64351;SDS011;50680;52.626;-8.668;2023-09-07T04:49:25;10.45;;;3.70;;
64351;SDS011;50680;52.626;-8.668;2023-09-07T04:51:53;14.07;;;4.15;;
64351;SDS011;50680;52.626;-8.668;2023-09-07T04:54:21;13.48;;;4.45;;
64351;SDS011;50680;52.626;-8.668;2023-09-07T04:56:47;12.20;;;3.92;;
64351;SDS011;50680;52.626;-8.668;2023-09-07T04:59:14;8.60;;;3.20;;
64351;SDS011;50680;52.626;-8.668;2023-09-07T05:01:41;13.40;;;3.67;;
64351;SDS011;50680;52.626;-8.668;2023-09-07T05:04:08;11.35;;;5.03;;
64351;SDS011;50680;52.626;-8.668;2023-09-07T05:06:35;13.80;;;4.88;;
64351;SDS011;50680;52.626;-8.668;2023-09-07T05:09:04;18.90;;;4.32;;
64351;SDS011;50680;52.626;-8.668;2023-09-07T05:11:30;15.15;;;3.80;;
64351;SDS011;50680;52.626;-8.668;2023-09-07T05:14:01;17.60;;;5.57;;
64351;SDS011;50680;52.626;-8.668;2023-09-07T05:16:28;9.00;;;4.05;;
64351;SDS011;50680;52.626;-8.668;2023-09-07T05:18:55;13.52;;;4.40;;
64351;SDS011;50680;52.626;-8.668;2023-09-07T05:21:22;16.85;;;5.78;;
64351;SDS011;50680;52.626;-8.668;2023-09-07T05:23:49;10.88;;;5.00;;
64351;SDS011;50680;52.626;-8.668;2023-09-07T05:26:20;11.20;;;4.10;;
64351;SDS011;50680;52.626;-8.668;2023-09-07T05:28:48;13.63;;;3.50;;
64351;SDS011;50680;52.626;-8.668;2023-09-07T05:31:15;13.85;;;4.22;;
64351;SDS011;50680;52.626;-8.668;2023-09-07T05:33:42;12.88;;;4.03;;
64351;SDS011;50680;52.626;-8.668;2023-09-07T05:36:09;7.10;;;3.70;;
64351;SDS011;50680;52.626;-8.668;2023-09-07T05:38:37;10.23;;;3.75;;
64351;SDS011;50680;52.626;-8.668;2023-09-07T05:41:04;12.07;;;4.30;;
64351;SDS011;50680;52.626;-8.668;2023-09-07T05:43:31;7.35;;;3.83;;
64351;SDS011;50680;52.626;-8.668;2023-09-07T05:45:58;16.30;;;4.00;;
64351;SDS011;50680;52.626;-8.668;2023-09-07T05:48:25;14.02;;;3.85;;
64351;SDS011;50680;52.626;-8.668;2023-09-07T05:50:52;12.70;;;4.85;;
64351;SDS011;50680;52.626;-8.668;2023-09-07T05:53:19;11.68;;;4.43;;
64351;SDS011;50680;52.626;-8.668;2023-09-07T05:55:46;7.50;;;3.83;;
64351;SDS011;50680;52.626;-8.668;2023-09-07T05:58:13;14.90;;;4.85;;
64351;SDS011;50680;52.626;-8.668;2023-09-07T06:00:41;16.00;;;4.80;;
64351;SDS011;50680;52.626;-8.668;2023-09-07T06:03:08;15.02;;;4.47;;
64351;SDS011;50680;52.626;-8.668;2023-09-07T06:05:36;18.00;;;5.13;;
64351;SDS011;50680;52.626;-8.668;2023-09-07T06:08:05;10.57;;;4.55;;
64351;SDS011;50680;52.626;-8.668;2023-09-07T06:10:35;15.57;;;5.18;;
64351;SDS011;50680;52.626;-8.668;2023-09-07T06:13:02;17.25;;;6.15;;
64351;SDS011;50680;52.626;-8.668;2023-09-07T06:15:30;13.57;;;5.97;;
64351;SDS011;50680;52.626;-8.668;2023-09-07T06:17:57;15.02;;;5.63;;
64351;SDS011;50680;52.626;-8.668;2023-09-07T06:20:24;18.75;;;6.10;;
64351;SDS011;50680;52.626;-8.668;2023-09-07T06:22:51;11.30;;;6.18;;
64351;SDS011;50680;52.626;-8.668;2023-09-07T06:25:18;11.30;;;5.15;;
64351;SDS011;50680;52.626;-8.668;2023-09-07T06:27:45;12.88;;;4.80;;
64351;SDS011;50680;52.626;-8.668;2023-09-07T06:30:12;17.63;;;4.97;;
64351;SDS011;50680;52.626;-8.668;2023-09-07T06:32:39;14.40;;;4.70;;
64351;SDS011;50680;52.626;-8.668;2023-09-07T06:35:07;14.23;;;5.60;;
64351;SDS011;50680;52.626;-8.668;2023-09-07T06:37:34;19.52;;;4.85;;
64351;SDS011;50680;52.626;-8.668;2023-09-07T06:40:02;13.55;;;4.50;;
64351;SDS011;50680;52.626;-8.668;2023-09-07T06:42:30;15.32;;;4.53;;
64351;SDS011;50680;52.626;-8.668;2023-09-07T06:44:57;18.25;;;5.07;;
64351;SDS011;50680;52.626;-8.668;2023-09-07T06:47:24;9.75;;;4.30;;
64351;SDS011;50680;52.626;-8.668;2023-09-07T06:49:51;14.80;;;4.28;;
64351;SDS011;50680;52.626;-8.668;2023-09-07T06:52:17;19.63;;;4.78;;
64351;SDS011;50680;52.626;-8.668;2023-09-07T06:54:44;17.58;;;4.78;;
64351;SDS011;50680;52.626;-8.668;2023-09-07T06:57:11;14.27;;;4.03;;
64351;SDS011;50680;52.626;-8.668;2023-09-07T06:59:38;14.43;;;4.50;;
64351;SDS011;50680;52.626;-8.668;2023-09-07T07:02:05;17.38;;;4.90;;
64351;SDS011;50680;52.626;-8.668;2023-09-07T07:04:32;20.00;;;5.88;;
64351;SDS011;50680;52.626;-8.668;2023-09-07T07:06:59;18.63;;;4.97;;
64351;SDS011;50680;52.626;-8.668;2023-09-07T07:09:27;11.98;;;4.53;;
64351;SDS011;50680;52.626;-8.668;2023-09-07T07:11:56;18.67;;;4.90;;
64351;SDS011;50680;52.626;-8.668;2023-09-07T07:14:23;20.27;;;5.13;;
64351;SDS011;50680;52.626;-8.668;2023-09-07T07:16:49;15.45;;;3.70;;
64351;SDS011;50680;52.626;-8.668;2023-09-07T07:19:16;12.52;;;3.88;;
64351;SDS011;50680;52.626;-8.668;2023-09-07T07:21:43;17.40;;;4.75;;
64351;SDS011;50680;52.626;-8.668;2023-09-07T07:24:10;9.05;;;3.88;;
64351;SDS011;50680;52.626;-8.668;2023-09-07T07:26:37;12.63;;;4.47;;
64351;SDS011;50680;52.626;-8.668;2023-09-07T07:29:04;12.13;;;3.70;;
64351;SDS011;50680;52.626;-8.668;2023-09-07T07:31:31;13.07;;;4.00;;
64351;SDS011;50680;52.626;-8.668;2023-09-07T07:33:58;14.30;;;4.30;;
64351;SDS011;50680;52.626;-8.668;2023-09-07T07:36:25;15.55;;;4.00;;
64351;SDS011;50680;52.626;-8.668;2023-09-07T07:38:52;21.38;;;4.32;;
64351;SDS011;50680;52.626;-8.668;2023-09-07T07:41:19;22.25;;;4.68;;
64351;SDS011;50680;52.626;-8.668;2023-09-07T07:43:46;15.95;;;4.13;;
64351;SDS011;50680;52.626;-8.668;2023-09-07T07:46:12;15.98;;;3.97;;
64351;SDS011;50680;52.626;-8.668;2023-09-07T07:48:42;15.15;;;3.90;;
64351;SDS011;50680;52.626;-8.668;2023-09-07T07:51:09;14.85;;;4.30;;
64351;SDS011;50680;52.626;-8.668;2023-09-07T07:53:37;18.65;;;4.00;;
64351;SDS011;50680;52.626;-8.668;2023-09-07T07:56:04;15.07;;;3.50;;
64351;SDS011;50680;52.626;-8.668;2023-09-07T07:58:31;14.77;;;4.15;;
64351;SDS011;50680;52.626;-8.668;2023-09-07T08:00:58;16.35;;;3.38;;
64351;SDS011;50680;52.626;-8.668;2023-09-07T08:03:25;17.42;;;4.40;;
64351;SDS011;50680;52.626;-8.668;2023-09-07T08:05:52;16.70;;;4.35;;
64351;SDS011;50680;52.626;-8.668;2023-09-07T08:08:19;20.60;;;4.90;;
64351;SDS011;50680;52.626;-8.668;2023-09-07T08:10:46;14.77;;;3.92;;
64351;SDS011;50680;52.626;-8.668;2023-09-07T08:13:13;18.73;;;3.97;;
64351;SDS011;50680;52.626;-8.668;2023-09-07T08:15:40;16.00;;;3.55;;
64351;SDS011;50680;52.626;-8.668;2023-09-07T08:18:07;17.58;;;3.20;;
64351;SDS011;50680;52.626;-8.668;2023-09-07T08:20:35;20.40;;;3.28;;
64351;SDS011;50680;52.626;-8.668;2023-09-07T08:23:03;22.10;;;3.65;;
64351;SDS011;50680;52.626;-8.668;2023-09-07T08:25:34;14.77;;;3.65;;
64351;SDS011;50680;52.626;-8.668;2023-09-07T08:28:01;11.23;;;2.75;;
64351;SDS011;50680;52.626;-8.668;2023-09-07T08:30:32;24.63;;;3.43;;
64351;SDS011;50680;52.626;-8.668;2023-09-07T08:33:00;17.63;;;3.70;;
64351;SDS011;50680;52.626;-8.668;2023-09-07T08:35:28;17.90;;;3.88;;
64351;SDS011;50680;52.626;-8.668;2023-09-07T08:37:57;14.65;;;3.72;;
64351;SDS011;50680;52.626;-8.668;2023-09-07T08:40:26;17.25;;;3.75;;
64351;SDS011;50680;52.626;-8.668;2023-09-07T08:42:54;14.80;;;4.10;;
64351;SDS011;50680;52.626;-8.668;2023-09-07T08:45:21;14.50;;;4.18;;
64351;SDS011;50680;52.626;-8.668;2023-09-07T08:47:49;12.45;;;3.80;;
64351;SDS011;50680;52.626;-8.668;2023-09-07T08:50:16;12.98;;;3.17;;
64351;SDS011;50680;52.626;-8.668;2023-09-07T08:52:45;24.10;;;3.67;;
64351;SDS011;50680;52.626;-8.668;2023-09-07T08:55:13;16.90;;;3.88;;
64351;SDS011;50680;52.626;-8.668;2023-09-07T08:57:40;23.92;;;4.47;;
64351;SDS011;50680;52.626;-8.668;2023-09-07T09:00:06;19.35;;;3.92;;
64351;SDS011;50680;52.626;-8.668;2023-09-07T09:02:40;17.95;;;3.83;;
64351;SDS011;50680;52.626;-8.668;2023-09-07T09:05:10;18.05;;;3.10;;
64351;SDS011;50680;52.626;-8.668;2023-09-07T09:07:40;18.58;;;3.67;;
64351;SDS011;50680;52.626;-8.668;2023-09-07T09:10:07;12.38;;;3.50;;
64351;SDS011;50680;52.626;-8.668;2023-09-07T09:12:35;22.77;;;3.47;;
64351;SDS011;50680;52.626;-8.668;2023-09-07T09:15:02;22.05;;;3.55;;
64351;SDS011;50680;52.626;-8.668;2023-09-07T09:17:29;22.80;;;3.65;;
64351;SDS011;50680;52.626;-8.668;2023-09-07T09:19:56;25.98;;;4.30;;
64351;SDS011;50680;52.626;-8.668;2023-09-07T09:22:23;21.95;;;3.30;;
64351;SDS011;50680;52.626;-8.668;2023-09-07T09:24:50;20.88;;;4.00;;
64351;SDS011;50680;52.626;-8.668;2023-09-07T09:27:17;17.95;;;3.80;;
64351;SDS011;50680;52.626;-8.668;2023-09-07T09:29:44;23.05;;;3.40;;
64351;SDS011;50680;52.626;-8.668;2023-09-07T09:32:13;22.05;;;3.72;;
64351;SDS011;50680;52.626;-8.668;2023-09-07T09:34:43;23.35;;;3.70;;
64351;SDS011;50680;52.626;-8.668;2023-09-07T09:37:13;22.65;;;3.85;;
64351;SDS011;50680;52.626;-8.668;2023-09-07T09:39:49;14.38;;;3.65;;
64351;SDS011;50680;52.626;-8.668;2023-09-07T09:42:16;28.10;;;3.90;;
64351;SDS011;50680;52.626;-8.668;2023-09-07T09:44:44;20.40;;;5.13;;
64351;SDS011;50680;52.626;-8.668;2023-09-07T09:47:12;17.35;;;4.15;;
64351;SDS011;50680;52.626;-8.668;2023-09-07T09:49:40;23.40;;;4.25;;
64351;SDS011;50680;52.626;-8.668;2023-09-07T09:52:07;18.70;;;3.80;;
64351;SDS011;50680;52.626;-8.668;2023-09-07T09:54:35;15.77;;;3.15;;
64351;SDS011;50680;52.626;-8.668;2023-09-07T09:57:02;17.55;;;3.92;;
64351;SDS011;50680;52.626;-8.668;2023-09-07T09:59:29;20.25;;;4.00;;
64351;SDS011;50680;52.626;-8.668;2023-09-07T10:01:56;23.65;;;4.38;;
64351;SDS011;50680;52.626;-8.668;2023-09-07T10:04:24;20.10;;;3.45;;
64351;SDS011;50680;52.626;-8.668;2023-09-07T10:06:56;17.30;;;3.63;;
64351;SDS011;50680;52.626;-8.668;2023-09-07T10:09:32;24.40;;;4.50;;
64351;SDS011;50680;52.626;-8.668;2023-09-07T10:12:01;19.58;;;4.18;;
64351;SDS011;50680;52.626;-8.668;2023-09-07T10:14:40;20.77;;;3.72;;
64351;SDS011;50680;52.626;-8.668;2023-09-07T10:17:07;22.00;;;3.78;;
64351;SDS011;50680;52.626;-8.668;2023-09-07T10:19:36;18.23;;;3.78;;
64351;SDS011;50680;52.626;-8.668;2023-09-07T10:22:04;19.58;;;3.88;;
64351;SDS011;50680;52.626;-8.668;2023-09-07T10:24:34;25.13;;;4.13;;
64351;SDS011;50680;52.626;-8.668;2023-09-07T10:27:03;24.23;;;4.45;;
64351;SDS011;50680;52.626;-8.668;2023-09-07T10:29:45;32.25;;;4.03;;
64351;SDS011;50680;52.626;-8.668;2023-09-07T10:34:45;24.60;;;4.13;;
64351;SDS011;50680;52.626;-8.668;2023-09-07T10:37:13;28.17;;;3.92;;
64351;SDS011;50680;52.626;-8.668;2023-09-07T10:39:41;29.17;;;3.90;;
64351;SDS011;50680;52.626;-8.668;2023-09-07T10:42:20;20.33;;;3.95;;
64351;SDS011;50680;52.626;-8.668;2023-09-07T10:44:51;23.00;;;3.90;;
64351;SDS011;50680;52.626;-8.668;2023-09-07T10:47:18;19.77;;;3.90;;
64351;SDS011;50680;52.626;-8.668;2023-09-07T10:49:45;23.40;;;3.90;;
64351;SDS011;50680;52.626;-8.668;2023-09-07T10:52:12;20.70;;;4.55;;
64351;SDS011;50680;52.626;-8.668;2023-09-07T10:54:39;27.63;;;4.35;;
64351;SDS011;50680;52.626;-8.668;2023-09-07T10:57:09;17.75;;;3.75;;
64351;SDS011;50680;52.626;-8.668;2023-09-07T10:59:46;19.70;;;3.88;;
64351;SDS011;50680;52.626;-8.668;2023-09-07T11:02:14;18.38;;;3.83;;
64351;SDS011;50680;52.626;-8.668;2023-09-07T11:04:42;21.33;;;3.70;;
64351;SDS011;50680;52.626;-8.668;2023-09-07T11:07:10;18.02;;;3.58;;
64351;SDS011;50680;52.626;-8.668;2023-09-07T11:09:43;15.02;;;3.88;;
64351;SDS011;50680;52.626;-8.668;2023-09-07T11:12:13;21.15;;;3.78;;
64351;SDS011;50680;52.626;-8.668;2023-09-07T11:14:42;18.25;;;4.18;;
64351;SDS011;50680;52.626;-8.668;2023-09-07T11:17:09;19.27;;;3.78;;
64351;SDS011;50680;52.626;-8.668;2023-09-07T11:19:36;17.13;;;3.95;;
64351;SDS011;50680;52.626;-8.668;2023-09-07T11:22:03;19.80;;;4.20;;
64351;SDS011;50680;52.626;-8.668;2023-09-07T11:24:32;22.25;;;4.78;;
64351;SDS011;50680;52.626;-8.668;2023-09-07T11:27:01;19.90;;;3.55;;
64351;SDS011;50680;52.626;-8.668;2023-09-07T11:29:33;26.83;;;4.05;;
64351;SDS011;50680;52.626;-8.668;2023-09-07T11:32:06;16.08;;;4.03;;
64351;SDS011;50680;52.626;-8.668;2023-09-07T11:34:35;14.55;;;4.07;;
64351;SDS011;50680;52.626;-8.668;2023-09-07T11:37:15;22.33;;;3.85;;
64351;SDS011;50680;52.626;-8.668;2023-09-07T11:39:42;23.65;;;4.43;;
64351;SDS011;50680;52.626;-8.668;2023-09-07T11:42:08;20.65;;;4.10;;
64351;SDS011;50680;52.626;-8.668;2023-09-07T11:44:35;18.45;;;4.20;;
64351;SDS011;50680;52.626;-8.668;2023-09-07T11:47:02;20.30;;;3.90;;
64351;SDS011;50680;52.626;-8.668;2023-09-07T11:49:31;20.85;;;4.53;;
64351;SDS011;50680;52.626;-8.668;2023-09-07T11:51:59;20.17;;;3.47;;
64351;SDS011;50680;52.626;-8.668;2023-09-07T11:54:26;18.20;;;3.80;;
64351;SDS011;50680;52.626;-8.668;2023-09-07T11:56:53;21.35;;;4.03;;
64351;SDS011;50680;52.626;-8.668;2023-09-07T11:59:20;21.90;;;4.00;;
64351;SDS011;50680;52.626;-8.668;2023-09-07T12:01:47;19.40;;;3.88;;
64351;SDS011;50680;52.626;-8.668;2023-09-07T12:04:15;23.85;;;3.67;;
64351;SDS011;50680;52.626;-8.668;2023-09-07T12:06:42;19.35;;;3.92;;
64351;SDS011;50680;52.626;-8.668;2023-09-07T12:09:09;16.25;;;3.60;;
64351;SDS011;50680;52.626;-8.668;2023-09-07T12:11:36;16.83;;;4.50;;
64351;SDS011;50680;52.626;-8.668;2023-09-07T12:14:03;21.65;;;4.32;;
64351;SDS011;50680;52.626;-8.668;2023-09-07T12:16:30;20.88;;;4.43;;
64351;SDS011;50680;52.626;-8.668;2023-09-07T12:18:57;15.55;;;3.42;;
64351;SDS011;50680;52.626;-8.668;2023-09-07T12:21:24;19.17;;;3.35;;
64351;SDS011;50680;52.626;-8.668;2023-09-07T12:23:51;15.68;;;4.00;;
64351;SDS011;50680;52.626;-8.668;2023-09-07T12:26:18;15.57;;;3.55;;
64351;SDS011;50680;52.626;-8.668;2023-09-07T12:28:47;14.10;;;2.97;;
64351;SDS011;50680;52.626;-8.668;2023-09-07T12:31:14;19.52;;;3.92;;
64351;SDS011;50680;52.626;-8.668;2023-09-07T12:33:42;15.07;;;2.97;;
64351;SDS011;50680;52.626;-8.668;2023-09-07T12:36:09;18.15;;;4.00;;
64351;SDS011;50680;52.626;-8.668;2023-09-07T12:38:38;15.43;;;3.83;;
64351;SDS011;50680;52.626;-8.668;2023-09-07T12:41:05;23.10;;;3.50;;
64351;SDS011;50680;52.626;-8.668;2023-09-07T12:43:31;16.35;;;3.08;;
64351;SDS011;50680;52.626;-8.668;2023-09-07T12:45:59;18.90;;;3.45;;
64351;SDS011;50680;52.626;-8.668;2023-09-07T12:48:26;13.30;;;3.75;;
64351;SDS011;50680;52.626;-8.668;2023-09-07T12:50:53;20.73;;;3.10;;
64351;SDS011;50680;52.626;-8.668;2023-09-07T12:53:21;13.68;;;3.13;;
64351;SDS011;50680;52.626;-8.668;2023-09-07T12:55:55;15.43;;;3.08;;
64351;SDS011;50680;52.626;-8.668;2023-09-07T12:58:22;12.75;;;2.42;;
64351;SDS011;50680;52.626;-8.668;2023-09-07T13:00:49;23.30;;;3.08;;
64351;SDS011;50680;52.626;-8.668;2023-09-07T13:03:19;11.75;;;2.75;;
64351;SDS011;50680;52.626;-8.668;2023-09-07T13:05:47;14.70;;;3.33;;
64351;SDS011;50680;52.626;-8.668;2023-09-07T13:08:14;13.68;;;2.65;;
64351;SDS011;50680;52.626;-8.668;2023-09-07T13:10:41;14.60;;;3.08;;
64351;SDS011;50680;52.626;-8.668;2023-09-07T13:13:08;10.63;;;3.22;;
64351;SDS011;50680;52.626;-8.668;2023-09-07T13:15:35;10.70;;;2.70;;
64351;SDS011;50680;52.626;-8.668;2023-09-07T13:18:02;18.30;;;2.75;;
64351;SDS011;50680;52.626;-8.668;2023-09-07T13:20:29;14.20;;;3.47;;
64351;SDS011;50680;52.626;-8.668;2023-09-07T13:22:56;13.73;;;3.00;;
64351;SDS011;50680;52.626;-8.668;2023-09-07T13:25:23;12.82;;;3.20;;
64351;SDS011;50680;52.626;-8.668;2023-09-07T13:27:50;17.92;;;3.13;;
64351;SDS011;50680;52.626;-8.668;2023-09-07T13:30:17;15.57;;;2.33;;
64351;SDS011;50680;52.626;-8.668;2023-09-07T13:32:44;15.25;;;3.30;;
64351;SDS011;50680;52.626;-8.668;2023-09-07T13:35:14;11.73;;;3.13;;
64351;SDS011;50680;52.626;-8.668;2023-09-07T13:37:41;16.52;;;3.10;;
64351;SDS011;50680;52.626;-8.668;2023-09-07T13:40:08;9.25;;;2.60;;
64351;SDS011;50680;52.626;-8.668;2023-09-07T13:42:35;14.40;;;2.47;;
64351;SDS011;50680;52.626;-8.668;2023-09-07T13:45:02;14.60;;;2.63;;
64351;SDS011;50680;52.626;-8.668;2023-09-07T13:47:29;18.83;;;2.92;;
64351;SDS011;50680;52.626;-8.668;2023-09-07T13:49:56;13.15;;;2.80;;
64351;SDS011;50680;52.626;-8.668;2023-09-07T13:52:22;13.88;;;3.25;;
64351;SDS011;50680;52.626;-8.668;2023-09-07T13:54:49;12.85;;;3.00;;
64351;SDS011;50680;52.626;-8.668;2023-09-07T13:57:16;27.33;;;3.70;;
64351;SDS011;50680;52.626;-8.668;2023-09-07T13:59:43;14.88;;;3.15;;
64351;SDS011;50680;52.626;-8.668;2023-09-07T14:02:10;14.80;;;3.08;;
64351;SDS011;50680;52.626;-8.668;2023-09-07T14:04:37;17.27;;;3.30;;
64351;SDS011;50680;52.626;-8.668;2023-09-07T14:07:03;17.13;;;3.10;;
64351;SDS011;50680;52.626;-8.668;2023-09-07T14:09:30;17.80;;;2.95;;
64351;SDS011;50680;52.626;-8.668;2023-09-07T14:11:57;14.85;;;3.35;;
64351;SDS011;50680;52.626;-8.668;2023-09-07T14:14:24;17.77;;;3.53;;
64351;SDS011;50680;52.626;-8.668;2023-09-07T14:16:51;12.43;;;2.70;;
64351;SDS011;50680;52.626;-8.668;2023-09-07T14:19:23;9.07;;;2.80;;
64351;SDS011;50680;52.626;-8.668;2023-09-07T14:21:53;21.63;;;3.70;;
64351;SDS011;50680;52.626;-8.668;2023-09-07T14:24:19;15.57;;;2.88;;
64351;SDS011;50680;52.626;-8.668;2023-09-07T14:26:46;21.05;;;3.40;;
64351;SDS011;50680;52.626;-8.668;2023-09-07T14:29:13;12.32;;;3.22;;
64351;SDS011;50680;52.626;-8.668;2023-09-07T14:31:40;22.15;;;3.80;;